createdAt,value
2018-05-24T00:00:37.460Z,20.28
2018-05-24T00:03:05.122Z,20.24
2018-05-24T00:05:33.244Z,20.25
2018-05-24T00:08:00.791Z,20.26
2018-05-24T00:10:28.289Z,20.25
2018-05-24T00:12:55.828Z,20.28
2018-05-24T00:15:23.598Z,20.24
2018-05-24T00:17:51.138Z,20.21
2018-05-24T00:20:18.655Z,20.22
2018-05-24T00:22:46.213Z,20.20
2018-05-24T00:25:13.722Z,20.15
2018-05-24T00:27:41.246Z,20.13
2018-05-24T00:30:08.748Z,20.06
2018-05-24T00:32:36.296Z,20.04
2018-05-24T00:35:03.843Z,20.02
2018-05-24T00:37:31.641Z,20.01
2018-05-24T00:39:59.186Z,19.96
2018-05-24T00:42:26.715Z,19.93
2018-05-24T00:44:54.275Z,19.92
2018-05-24T00:47:21.814Z,19.90
2018-05-24T00:49:49.322Z,19.89
2018-05-24T00:52:16.861Z,19.86
2018-05-24T00:54:44.533Z,19.90
2018-05-24T00:57:12.039Z,19.85
2018-05-24T00:59:39.607Z,19.84
2018-05-24T01:02:07.126Z,19.78
2018-05-24T01:04:34.667Z,19.73
2018-05-24T01:07:02.181Z,19.73
2018-05-24T01:09:29.720Z,19.67
2018-05-24T01:11:57.230Z,19.68
2018-05-24T01:14:25.054Z,19.63
2018-05-24T01:16:52.560Z,19.62
2018-05-24T01:19:20.086Z,19.62
2018-05-24T01:21:47.710Z,19.58
2018-05-24T01:24:15.236Z,19.58
2018-05-24T01:26:42.743Z,19.54
2018-05-24T01:29:10.281Z,19.53
2018-05-24T01:31:38.084Z,19.54
2018-05-24T01:34:05.605Z,19.50
2018-05-24T01:36:44.890Z,19.47
2018-05-24T01:39:12.541Z,19.43
2018-05-24T01:41:40.064Z,19.44
2018-05-24T01:44:07.614Z,19.39
2018-05-24T01:46:35.128Z,19.35
2018-05-24T01:49:02.720Z,19.30
2018-05-24T01:51:30.275Z,19.31
2018-05-24T01:53:57.785Z,19.30
2018-05-24T01:56:25.277Z,19.27
2018-05-24T01:58:52.853Z,19.24
2018-05-24T02:01:20.411Z,19.23
2018-05-24T02:03:47.913Z,19.19
2018-05-24T02:06:15.707Z,19.20
2018-05-24T02:08:43.218Z,19.20
2018-05-24T02:11:10.718Z,19.18
2018-05-24T02:13:38.245Z,19.11
2018-05-24T02:16:05.769Z,19.14
2018-05-24T02:18:33.356Z,19.09
2018-05-24T02:21:00.890Z,19.06
2018-05-24T02:23:28.473Z,19.07
2018-05-24T02:25:56.010Z,19.02
2018-05-24T02:28:23.599Z,18.96
2018-05-24T02:30:51.144Z,18.93
2018-05-24T02:33:18.691Z,18.86
2018-05-24T02:35:46.315Z,18.82
2018-05-24T02:38:13.806Z,18.83
2018-05-24T02:40:41.327Z,18.86
2018-05-24T02:43:08.854Z,18.81
2018-05-24T02:45:36.389Z,18.79
2018-05-24T02:48:04.051Z,18.78
2018-05-24T02:50:31.607Z,18.72
2018-05-24T02:52:59.576Z,18.70
2018-05-24T02:55:27.090Z,18.65
2018-05-24T02:57:54.651Z,18.64
2018-05-24T03:00:22.459Z,18.61
2018-05-24T03:02:49.990Z,18.60
2018-05-24T03:05:17.592Z,18.58
2018-05-24T03:07:45.112Z,18.55
2018-05-24T03:10:12.667Z,18.54
2018-05-24T03:12:40.464Z,18.54
2018-05-24T03:15:08.690Z,18.51
2018-05-24T03:17:36.206Z,18.51
2018-05-24T03:20:03.757Z,18.50
2018-05-24T03:22:31.527Z,18.51
2018-05-24T03:24:59.089Z,18.48
2018-05-24T03:27:26.640Z,18.45
2018-05-24T03:29:54.178Z,18.42
2018-05-24T03:32:21.711Z,18.46
2018-05-24T03:34:49.353Z,18.48
2018-05-24T03:37:16.854Z,18.49
2018-05-24T03:39:44.485Z,18.48
2018-05-24T03:42:12.024Z,18.46
2018-05-24T03:44:39.556Z,18.51
2018-05-24T03:47:07.077Z,18.50
2018-05-24T03:49:34.702Z,18.54
2018-05-24T03:52:02.222Z,18.50
2018-05-24T03:54:29.738Z,18.50
2018-05-24T03:56:57.270Z,18.48
2018-05-24T04:02:48.315Z,18.45
2018-05-24T04:05:16.080Z,18.47
2018-05-24T04:07:43.578Z,18.45
2018-05-24T04:10:11.154Z,18.40
2018-05-24T04:12:38.689Z,18.42
2018-05-24T04:15:07.468Z,18.40
2018-05-24T04:17:35.307Z,18.42
2018-05-24T04:20:02.810Z,18.38
2018-05-24T04:22:30.331Z,18.39
2018-05-24T04:24:57.894Z,18.37
2018-05-24T04:27:25.462Z,18.39
2018-05-24T04:29:52.981Z,18.37
2018-05-24T04:32:20.598Z,18.34
2018-05-24T04:34:48.449Z,18.37
2018-05-24T04:37:15.969Z,18.43
2018-05-24T04:39:43.523Z,18.36
2018-05-24T04:42:11.044Z,18.37
2018-05-24T04:44:38.549Z,18.43
2018-05-24T04:47:06.101Z,18.42
2018-05-24T04:49:33.635Z,18.48
2018-05-24T04:52:01.475Z,18.47
2018-05-24T04:54:29.338Z,18.50
2018-05-24T04:56:57.010Z,18.49
2018-05-24T04:59:24.535Z,18.49
2018-05-24T05:01:52.078Z,18.51
2018-05-24T05:04:19.584Z,18.54
2018-05-24T05:06:47.135Z,18.57
2018-05-24T05:09:14.735Z,18.60
2018-05-24T05:11:42.251Z,18.63
2018-05-24T05:14:09.775Z,18.67
2018-05-24T05:16:37.281Z,18.72
2018-05-24T05:19:04.834Z,18.75
2018-05-24T05:21:32.607Z,18.76
2018-05-24T05:24:00.146Z,18.76
2018-05-24T05:26:27.692Z,18.74
2018-05-24T05:28:55.485Z,18.86
2018-05-24T05:31:23.774Z,18.87
2018-05-24T05:33:51.273Z,18.87
2018-05-24T05:36:18.780Z,18.91
2018-05-24T05:38:47.262Z,18.89
2018-05-24T05:41:14.795Z,18.91
2018-05-24T05:43:42.320Z,18.91
2018-05-24T05:46:09.825Z,18.89
2018-05-24T05:48:37.714Z,18.87
2018-05-24T05:51:05.290Z,18.89
2018-05-24T05:53:33.041Z,18.94
2018-05-24T05:56:00.585Z,18.92
2018-05-24T05:58:28.103Z,18.89
2018-05-24T06:00:55.613Z,18.91
2018-05-24T06:03:23.158Z,18.92
2018-05-24T06:05:50.681Z,19.00
2018-05-24T06:08:18.251Z,19.08
2018-05-24T06:10:45.833Z,19.13
2018-05-24T06:13:13.646Z,19.17
2018-05-24T06:15:41.332Z,19.15
2018-05-24T06:18:08.826Z,19.13
2018-05-24T06:20:36.772Z,19.11
2018-05-24T06:23:04.290Z,19.10
2018-05-24T06:25:31.815Z,19.09
2018-05-24T06:27:59.455Z,19.10
2018-05-24T06:30:26.953Z,19.16
2018-05-24T06:32:54.492Z,19.19
2018-05-24T06:35:22.011Z,19.22
2018-05-24T06:37:49.528Z,19.25
2018-05-24T06:40:17.045Z,19.20
2018-05-24T06:42:44.610Z,19.19
2018-05-24T06:45:12.165Z,19.38
2018-05-24T06:47:39.713Z,19.75
2018-05-24T06:50:07.281Z,20.10
2018-05-24T06:52:34.846Z,20.47
2018-05-24T06:55:02.463Z,20.93
2018-05-24T06:57:30.594Z,21.58
2018-05-24T06:59:58.479Z,22.09
2018-05-24T07:02:26.067Z,22.55
2018-05-24T07:04:53.704Z,22.84
2018-05-24T07:07:21.528Z,23.36
2018-05-24T07:09:49.066Z,23.53
2018-05-24T07:12:16.649Z,24.00
2018-05-24T07:14:44.170Z,24.55
2018-05-24T07:17:13.274Z,24.69
2018-05-24T07:19:41.343Z,24.65
2018-05-24T07:22:09.958Z,24.65
2018-05-24T07:24:38.689Z,25.03
2018-05-24T07:27:06.704Z,25.22
2018-05-24T07:29:34.686Z,25.16
2018-05-24T07:32:05.155Z,24.44
2018-05-24T07:34:32.700Z,23.87
2018-05-24T07:37:01.494Z,23.74
2018-05-24T07:39:29.073Z,23.77
2018-05-24T07:41:56.677Z,23.71
2018-05-24T07:44:26.558Z,23.62
2018-05-24T07:46:54.102Z,23.24
2018-05-24T07:49:23.199Z,23.00
2018-05-24T07:51:51.339Z,22.99
2018-05-24T07:54:23.115Z,22.89
2018-05-24T07:56:52.015Z,22.87
2018-05-24T07:59:26.262Z,23.04
2018-05-24T08:01:53.782Z,23.23
2018-05-24T08:04:21.377Z,23.66
2018-05-24T08:06:48.914Z,24.20
2018-05-24T08:09:16.436Z,24.71
2018-05-24T08:11:43.990Z,25.13
2018-05-24T08:14:11.513Z,25.73
2018-05-24T08:16:39.035Z,26.05
2018-05-24T08:19:06.739Z,26.69
2018-05-24T08:21:34.257Z,27.42
2018-05-24T08:24:03.500Z,27.66
2018-05-24T08:26:31.004Z,28.07
2018-05-24T08:28:58.756Z,28.45
2018-05-24T08:31:26.327Z,28.62
2018-05-24T08:33:54.187Z,28.60
2018-05-24T08:36:22.063Z,29.00
2018-05-24T08:38:49.584Z,29.57
2018-05-24T08:41:17.109Z,29.82
2018-05-24T08:43:44.648Z,29.49
2018-05-24T08:46:12.497Z,29.60
2018-05-24T08:48:40.082Z,29.65
2018-05-24T08:51:07.620Z,29.57
2018-05-24T08:53:35.214Z,29.02
2018-05-24T08:56:02.761Z,28.98
2018-05-24T08:58:30.269Z,28.76
2018-05-24T09:00:58.172Z,28.45
2018-05-24T09:03:25.691Z,28.62
2018-05-24T09:05:53.191Z,28.72
2018-05-24T09:08:20.712Z,29.12
2018-05-24T09:10:48.223Z,29.12
2018-05-24T09:13:15.786Z,28.90
2018-05-24T09:15:43.325Z,28.65
2018-05-24T09:18:10.831Z,28.87
2018-05-24T09:20:38.699Z,29.11
2018-05-24T09:23:06.627Z,29.00
2018-05-24T09:25:34.222Z,28.91
2018-05-24T09:28:01.786Z,28.53
2018-05-24T09:30:29.306Z,28.26
2018-05-24T09:32:57.182Z,27.92
2018-05-24T09:35:24.868Z,27.22
2018-05-24T09:37:52.709Z,26.74
2018-05-24T09:40:20.269Z,26.26
2018-05-24T09:42:47.788Z,26.00
2018-05-24T09:45:15.405Z,25.77
2018-05-24T09:47:42.925Z,25.68
2018-05-24T09:50:10.473Z,25.44
2018-05-24T09:52:38.012Z,25.40
2018-05-24T09:55:05.594Z,25.39
2018-05-24T09:57:33.124Z,25.48
2018-05-24T10:00:00.640Z,25.41
2018-05-24T10:02:28.168Z,25.52
2018-05-24T10:04:55.980Z,25.80
2018-05-24T10:07:23.542Z,25.89
2018-05-24T10:09:51.090Z,26.14
2018-05-24T10:12:18.597Z,26.38
2018-05-24T10:14:46.137Z,26.39
2018-05-24T10:17:13.662Z,26.51
2018-05-24T10:19:41.192Z,26.59
2018-05-24T10:22:08.922Z,26.63
2018-05-24T10:24:36.420Z,26.45
2018-05-24T10:27:04.003Z,26.20
2018-05-24T10:29:31.797Z,26.03
2018-05-24T10:31:59.401Z,26.11
2018-05-24T10:34:32.566Z,26.67
2018-05-24T10:37:00.266Z,26.67
2018-05-24T10:39:31.990Z,27.05
2018-05-24T10:41:59.689Z,27.58
2018-05-24T10:44:27.240Z,27.75
2018-05-24T10:46:57.223Z,27.80
2018-05-24T10:49:26.162Z,27.80
2018-05-24T10:51:53.708Z,27.50
2018-05-24T10:54:24.446Z,26.90
2018-05-24T10:56:52.919Z,26.67
2018-05-24T10:59:21.205Z,26.62
2018-05-24T11:01:48.794Z,26.74
2018-05-24T11:04:17.305Z,26.96
2018-05-24T11:09:17.402Z,26.95
2018-05-24T11:11:45.115Z,26.94
2018-05-24T11:14:12.572Z,26.86
2018-05-24T11:16:41.278Z,26.84
2018-05-24T11:19:08.808Z,26.86
2018-05-24T11:21:36.486Z,26.89
2018-05-24T11:24:03.988Z,27.17
2018-05-24T11:26:31.491Z,27.09
2018-05-24T11:28:59.028Z,27.40
2018-05-24T11:31:26.566Z,27.68
2018-05-24T11:33:54.092Z,27.83
2018-05-24T11:36:21.626Z,27.71
2018-05-24T11:38:49.130Z,28.17
2018-05-24T11:41:16.669Z,28.32
2018-05-24T11:43:44.202Z,28.72
2018-05-24T11:46:11.801Z,28.69
2018-05-24T11:48:39.323Z,28.84
2018-05-24T11:51:06.882Z,29.06
2018-05-24T11:53:34.449Z,29.64
2018-05-24T11:56:02.000Z,30.51
2018-05-24T11:58:29.803Z,31.58
2018-05-24T12:00:57.306Z,32.72
2018-05-24T12:03:24.816Z,34.60
2018-05-24T12:05:52.339Z,36.20
2018-05-24T12:08:19.870Z,37.95
2018-05-24T12:10:47.388Z,37.71
2018-05-24T12:13:15.344Z,38.44
2018-05-24T12:15:42.854Z,39.73
2018-05-24T12:18:10.687Z,40.61
2018-05-24T12:20:38.194Z,41.35
2018-05-24T12:23:05.959Z,41.15
2018-05-24T12:25:33.498Z,41.52
2018-05-24T12:28:01.011Z,41.41
2018-05-24T12:30:28.558Z,41.71
2018-05-24T12:32:56.074Z,42.62
2018-05-24T12:35:23.675Z,43.21
2018-05-24T12:37:51.208Z,43.30
2018-05-24T12:40:19.035Z,42.66
2018-05-24T12:42:46.624Z,42.76
2018-05-24T12:45:14.468Z,42.50
2018-05-24T12:47:41.990Z,42.70
2018-05-24T12:50:09.797Z,42.06
2018-05-24T12:52:37.335Z,41.33
2018-05-24T12:55:05.721Z,40.41
2018-05-24T12:57:33.259Z,40.50
2018-05-24T13:00:00.811Z,40.26
2018-05-24T13:02:28.341Z,40.12
2018-05-24T13:04:55.942Z,39.84
2018-05-24T13:07:23.529Z,40.21
2018-05-24T13:09:51.053Z,40.12
2018-05-24T13:12:18.572Z,41.03
2018-05-24T13:14:46.092Z,40.84
2018-05-24T13:17:13.606Z,41.01
2018-05-24T13:19:41.138Z,41.41
2018-05-24T13:22:08.644Z,41.63
2018-05-24T13:24:36.206Z,42.07
2018-05-24T13:27:04.019Z,42.46
2018-05-24T13:29:31.543Z,42.78
2018-05-24T13:31:59.453Z,41.35
2018-05-24T13:34:27.054Z,40.48
2018-05-24T13:36:54.545Z,41.84
2018-05-24T13:39:22.059Z,42.25
2018-05-24T13:41:49.574Z,42.50
2018-05-24T13:44:17.160Z,43.57
2018-05-24T13:46:44.844Z,43.02
2018-05-24T13:49:12.362Z,43.00
2018-05-24T13:51:39.886Z,43.04
2018-05-24T13:54:07.383Z,42.48
2018-05-24T13:56:34.990Z,41.47
2018-05-24T13:59:02.555Z,41.33
2018-05-24T14:01:30.383Z,40.91
2018-05-24T14:03:57.932Z,40.86
2018-05-24T14:06:25.469Z,40.33
2018-05-24T14:08:52.998Z,39.46
2018-05-24T14:11:20.499Z,39.81
2018-05-24T14:13:48.043Z,39.21
2018-05-24T14:16:15.567Z,37.41
2018-05-24T14:18:43.211Z,36.73
2018-05-24T14:21:10.803Z,36.29
2018-05-24T14:23:38.325Z,35.81
2018-05-24T14:26:05.877Z,35.49
2018-05-24T14:28:33.409Z,35.06
2018-05-24T14:31:00.921Z,34.75
2018-05-24T14:33:28.776Z,34.12
2018-05-24T14:35:56.531Z,33.75
2018-05-24T14:38:24.059Z,33.59
2018-05-24T14:40:51.586Z,33.08
2018-05-24T14:43:19.124Z,32.52
2018-05-24T14:45:46.659Z,31.86
2018-05-24T14:48:14.192Z,31.17
2018-05-24T14:50:41.721Z,30.41
2018-05-24T14:53:09.560Z,29.87
2018-05-24T14:55:37.134Z,29.39
2018-05-24T14:58:04.701Z,29.09
2018-05-24T15:00:32.222Z,28.74
2018-05-24T15:02:59.741Z,28.51
2018-05-24T15:05:27.287Z,28.38
2018-05-24T15:07:54.797Z,28.38
2018-05-24T15:10:22.337Z,28.40
2018-05-24T15:12:49.888Z,28.16
2018-05-24T15:15:17.715Z,27.89
2018-05-24T15:17:45.299Z,27.79
2018-05-24T15:20:12.807Z,27.71
2018-05-24T15:22:40.337Z,27.67
2018-05-24T15:25:07.866Z,27.68
2018-05-24T15:27:35.437Z,27.76
2018-05-24T15:30:02.971Z,27.71
2018-05-24T15:32:30.471Z,27.69
2018-05-24T15:34:58.032Z,27.71
2018-05-24T15:37:25.590Z,27.64
2018-05-24T15:39:53.107Z,27.33
2018-05-24T15:42:20.681Z,27.21
2018-05-24T15:44:48.542Z,27.05
2018-05-24T15:47:16.117Z,26.94
2018-05-24T15:49:43.618Z,26.80
2018-05-24T15:52:11.136Z,26.69
2018-05-24T15:54:38.664Z,26.68
2018-05-24T15:57:06.652Z,26.60
2018-05-24T15:59:34.523Z,26.62
2018-05-24T16:02:02.033Z,26.64
2018-05-24T16:04:29.579Z,26.51
2018-05-24T16:06:57.532Z,26.48
2018-05-24T16:09:25.121Z,26.40
2018-05-24T16:11:52.656Z,26.29
2018-05-24T16:14:20.188Z,26.17
2018-05-24T16:16:47.697Z,26.17
2018-05-24T16:19:15.229Z,26.20
2018-05-24T16:21:42.744Z,26.19
2018-05-24T16:24:10.364Z,26.15
2018-05-24T16:26:37.891Z,26.14
2018-05-24T16:29:05.406Z,26.14
2018-05-24T16:31:33.936Z,26.10
2018-05-24T16:34:01.478Z,26.06
2018-05-24T16:36:29.010Z,26.01
2018-05-24T16:38:56.547Z,26.09
2018-05-24T16:41:24.090Z,25.95
2018-05-24T16:43:51.655Z,25.98
2018-05-24T16:46:19.521Z,25.88
2018-05-24T16:48:47.085Z,25.78
2018-05-24T16:51:14.714Z,25.64
2018-05-24T16:53:42.361Z,25.59
2018-05-24T16:56:10.184Z,25.51
2018-05-24T16:58:37.734Z,25.56
2018-05-24T17:01:05.330Z,25.58
2018-05-24T17:03:32.882Z,25.57
2018-05-24T17:06:00.428Z,25.59
2018-05-24T17:08:27.935Z,25.52
2018-05-24T17:10:55.471Z,25.48
2018-05-24T17:13:22.999Z,25.47
2018-05-24T17:15:50.590Z,25.45
2018-05-24T17:18:18.115Z,25.41
2018-05-24T17:20:45.976Z,25.38
2018-05-24T17:23:13.526Z,25.33
2018-05-24T17:25:41.071Z,25.37
2018-05-24T17:28:08.581Z,25.34
2018-05-24T17:30:36.101Z,25.37
2018-05-24T17:33:03.650Z,25.31
2018-05-24T17:35:31.195Z,25.29
2018-05-24T17:37:58.764Z,25.29
2018-05-24T17:40:26.559Z,25.31
2018-05-24T17:42:54.532Z,25.28
2018-05-24T17:45:22.062Z,25.23
2018-05-24T17:47:49.640Z,25.14
2018-05-24T17:50:17.231Z,25.12
2018-05-24T17:52:44.779Z,24.99
2018-05-24T17:55:12.304Z,25.01
2018-05-24T17:57:39.876Z,25.05
2018-05-24T18:00:07.442Z,25.03
2018-05-24T18:02:34.980Z,25.00
2018-05-24T18:05:02.781Z,25.02
2018-05-24T18:07:30.357Z,24.96
2018-05-24T18:09:57.956Z,24.94
2018-05-24T18:12:25.499Z,24.85
2018-05-24T18:14:53.073Z,24.82
2018-05-24T18:17:20.617Z,24.77
2018-05-24T18:19:48.262Z,24.74
2018-05-24T18:22:16.019Z,24.81
2018-05-24T18:24:43.587Z,24.76
2018-05-24T18:27:11.136Z,24.77
2018-05-24T18:29:38.772Z,24.70
2018-05-24T18:32:06.389Z,24.63
2018-05-24T18:34:34.225Z,24.65
2018-05-24T18:37:01.799Z,24.60
2018-05-24T18:39:29.317Z,24.63
2018-05-24T18:41:56.868Z,24.52
2018-05-24T18:44:24.391Z,24.53
2018-05-24T18:46:52.269Z,24.52
2018-05-24T18:49:19.863Z,24.45
2018-05-24T18:51:47.375Z,24.42
2018-05-24T18:54:14.922Z,24.38
2018-05-24T18:56:42.436Z,24.35
2018-05-24T18:59:09.949Z,24.38
2018-05-24T19:01:37.799Z,24.35
2018-05-24T19:04:05.324Z,24.36
2018-05-24T19:06:33.085Z,24.28
2018-05-24T19:09:00.652Z,24.23
2018-05-24T19:11:28.459Z,24.22
2018-05-24T19:13:55.983Z,24.18
2018-05-24T19:16:23.486Z,24.18
2018-05-24T19:18:51.021Z,24.15
2018-05-24T19:21:18.546Z,24.11
2018-05-24T19:23:46.198Z,24.10
2018-05-24T19:26:13.701Z,24.06
2018-05-24T19:28:41.241Z,24.07
2018-05-24T19:31:08.802Z,24.04
2018-05-24T19:33:36.454Z,23.99
2018-05-24T19:36:03.993Z,23.97
2018-05-24T19:38:31.539Z,23.97
2018-05-24T19:40:59.389Z,23.93
2018-05-24T19:43:26.896Z,23.86
2018-05-24T19:45:54.443Z,23.83
2018-05-24T19:48:21.937Z,23.79
2018-05-24T19:50:49.446Z,23.75
2018-05-24T19:53:17.010Z,23.75
2018-05-24T19:55:44.528Z,23.74
2018-05-24T19:58:12.156Z,23.71
2018-05-24T20:00:39.755Z,23.69
2018-05-24T20:03:07.487Z,23.68
2018-05-24T20:05:34.989Z,23.62
2018-05-24T20:08:02.517Z,23.62
2018-05-24T20:10:30.051Z,23.59
2018-05-24T20:12:57.562Z,23.59
2018-05-24T20:15:25.179Z,23.53
2018-05-24T20:17:53.005Z,23.55
2018-05-24T20:20:20.998Z,23.48
2018-05-24T20:22:48.761Z,23.49
2018-05-24T20:25:16.558Z,23.46
2018-05-24T20:27:44.081Z,23.44
2018-05-24T20:30:11.665Z,23.42
2018-05-24T20:32:39.231Z,23.36
2018-05-24T20:35:06.712Z,23.35
2018-05-24T20:37:34.901Z,23.34
2018-05-24T20:40:02.436Z,23.25
2018-05-24T20:42:30.006Z,23.22
2018-05-24T20:44:57.560Z,23.19
2018-05-24T20:47:25.056Z,23.15
2018-05-24T20:49:52.585Z,23.12
2018-05-24T20:52:20.135Z,23.07
2018-05-24T20:54:47.945Z,23.06
2018-05-24T20:57:15.914Z,23.02
2018-05-24T20:59:43.421Z,23.01
2018-05-24T21:02:10.990Z,22.98
2018-05-24T21:04:38.527Z,22.92
2018-05-24T21:07:06.417Z,22.87
2018-05-24T21:09:33.992Z,22.83
2018-05-24T21:12:01.542Z,22.79
2018-05-24T21:14:29.368Z,22.76
2018-05-24T21:16:56.868Z,22.77
2018-05-24T21:19:24.438Z,22.75
2018-05-24T21:21:51.958Z,22.70
2018-05-24T21:24:19.815Z,22.66
2018-05-24T21:26:47.568Z,22.64
2018-05-24T21:29:15.361Z,22.63
2018-05-24T21:31:43.300Z,22.60
2018-05-24T21:34:10.986Z,22.58
2018-05-24T21:36:38.578Z,22.55
2018-05-24T21:39:06.095Z,22.56
2018-05-24T21:41:33.630Z,22.52
2018-05-24T21:44:01.277Z,22.52
2018-05-24T21:46:28.885Z,22.49
2018-05-24T21:48:56.410Z,22.47
2018-05-24T21:51:23.986Z,22.43
2018-05-24T21:53:51.592Z,22.42
2018-05-24T21:56:19.122Z,22.41
2018-05-24T21:58:46.690Z,22.38
2018-05-24T22:01:14.551Z,22.35
2018-05-24T22:03:42.091Z,22.32
2018-05-24T22:06:09.626Z,22.29
2018-05-24T22:08:37.179Z,22.26
2018-05-24T22:11:04.823Z,22.26
2018-05-24T22:13:32.349Z,22.26
2018-05-24T22:15:59.911Z,22.25
2018-05-24T22:18:27.439Z,22.22
2018-05-24T22:20:54.958Z,22.18
2018-05-24T22:23:22.502Z,22.15
2018-05-24T22:25:50.023Z,22.12
2018-05-24T22:28:17.535Z,22.13
2018-05-24T22:30:45.065Z,22.10
2018-05-24T22:33:12.841Z,22.08
2018-05-24T22:35:40.712Z,22.05
2018-05-24T22:38:08.327Z,22.01
2018-05-24T22:40:35.862Z,21.99
2018-05-24T22:43:03.406Z,21.95
2018-05-24T22:45:30.928Z,21.95
2018-05-24T22:47:58.458Z,21.95
2018-05-24T22:50:25.997Z,21.92
2018-05-24T22:52:53.829Z,21.89
2018-05-24T22:55:21.353Z,21.88
2018-05-24T22:57:49.166Z,21.86
2018-05-24T23:00:16.673Z,21.85
2018-05-24T23:02:44.191Z,21.83
2018-05-24T23:05:11.718Z,21.83
2018-05-24T23:07:39.243Z,21.78
2018-05-24T23:10:06.765Z,21.76
2018-05-24T23:12:34.295Z,21.76
2018-05-24T23:15:01.838Z,21.72
2018-05-24T23:17:29.386Z,21.69
2018-05-24T23:19:56.922Z,21.68
2018-05-24T23:22:36.208Z,21.65
2018-05-24T23:25:04.121Z,21.59
2018-05-24T23:27:31.635Z,21.55
2018-05-24T23:29:59.205Z,21.50
2018-05-24T23:32:26.758Z,21.46
2018-05-24T23:34:54.284Z,21.43
2018-05-24T23:37:21.805Z,21.44
2018-05-24T23:39:49.680Z,21.42
2018-05-24T23:42:17.206Z,21.38
2018-05-24T23:44:44.722Z,21.34
2018-05-24T23:47:12.320Z,21.36
2018-05-24T23:49:39.843Z,21.32
2018-05-24T23:52:07.357Z,21.34
2018-05-24T23:54:35.138Z,21.28
2018-05-24T23:57:02.674Z,21.29
2018-05-24T23:59:30.173Z,21.31
